createdAt,value
2018-01-15T00:01:26.628Z,102005.15
2018-01-15T00:03:52.834Z,102006.91
2018-01-15T00:06:19.046Z,102003.83
2018-01-15T00:08:45.264Z,102004.28
2018-01-15T00:11:11.440Z,102004.70
2018-01-15T00:13:37.652Z,102000.80
2018-01-15T00:16:04.247Z,101992.94
2018-01-15T00:18:30.436Z,101985.08
2018-01-15T00:20:56.616Z,101977.22
2018-01-15T00:23:22.865Z,101967.62
2018-01-15T00:25:49.361Z,101960.64
2018-01-15T00:28:15.573Z,101957.12
2018-01-15T00:30:41.784Z,101965.44
2018-01-15T00:33:07.993Z,101953.65
2018-01-15T00:35:34.886Z,101949.30
2018-01-15T00:38:06.936Z,101941.42
2018-01-15T00:40:33.140Z,101936.20
2018-01-15T00:42:59.718Z,101928.36
2018-01-15T00:45:25.952Z,101926.59
2018-01-15T00:47:52.162Z,101918.74
2018-01-15T00:50:18.790Z,101912.66
2018-01-15T00:52:45.022Z,101907.82
2018-01-15T00:55:11.276Z,101902.16
2018-01-15T00:57:37.581Z,101904.79
2018-01-15T01:00:03.934Z,101896.51
2018-01-15T01:02:30.118Z,101898.67
2018-01-15T01:04:56.392Z,101896.92
2018-01-15T01:07:22.588Z,101893.87
2018-01-15T01:09:48.922Z,101880.79
2018-01-15T01:12:15.481Z,101873.37
2018-01-15T01:14:41.729Z,101873.38
2018-01-15T01:17:07.994Z,101862.02
2018-01-15T01:19:34.237Z,101862.89
2018-01-15T01:22:00.513Z,101860.73
2018-01-15T01:24:26.754Z,101858.09
2018-01-15T01:26:52.991Z,101851.99
2018-01-15T01:29:19.177Z,101854.59
2018-01-15T01:31:45.404Z,101848.50
2018-01-15T01:34:11.622Z,101850.25
2018-01-15T01:36:37.829Z,101862.02
2018-01-15T01:39:04.214Z,101866.38
2018-01-15T01:41:30.468Z,101856.37
2018-01-15T01:43:56.711Z,101851.98
2018-01-15T01:46:22.939Z,101855.05
2018-01-15T01:48:58.377Z,101853.72
2018-01-15T01:51:24.590Z,101848.50
2018-01-15T01:53:50.901Z,101845.88
2018-01-15T01:56:17.189Z,101839.78
2018-01-15T01:58:43.398Z,101838.88
2018-01-15T02:01:09.636Z,101830.19
2018-01-15T02:03:36.286Z,101817.95
2018-01-15T02:06:02.496Z,101814.02
2018-01-15T02:08:28.967Z,101810.55
2018-01-15T02:10:55.618Z,101804.44
2018-01-15T02:13:21.853Z,101795.27
2018-01-15T02:15:48.097Z,101790.05
2018-01-15T02:18:14.318Z,101783.05
2018-01-15T02:20:40.505Z,101785.24
2018-01-15T02:23:06.716Z,101786.11
2018-01-15T02:25:32.977Z,101790.05
2018-01-15T02:27:59.202Z,101787.44
2018-01-15T02:30:25.426Z,101796.14
2018-01-15T02:32:52.010Z,101793.54
2018-01-15T02:35:18.210Z,101791.36
2018-01-15T02:37:44.461Z,101783.49
2018-01-15T02:40:10.703Z,101782.19
2018-01-15T02:42:36.943Z,101773.91
2018-01-15T02:45:03.829Z,101763.86
2018-01-15T02:47:30.025Z,101756.00
2018-01-15T02:49:56.217Z,101748.16
2018-01-15T02:52:22.498Z,101741.64
2018-01-15T02:54:48.716Z,101742.05
2018-01-15T02:57:15.044Z,101734.20
2018-01-15T02:59:41.383Z,101735.52
2018-01-15T03:02:07.627Z,101728.08
2018-01-15T03:04:33.884Z,101717.19
2018-01-15T03:07:00.141Z,101711.09
2018-01-15T03:09:26.378Z,101714.55
2018-01-15T03:11:52.610Z,101714.14
2018-01-15T03:14:18.842Z,101703.22
2018-01-15T03:16:45.070Z,101696.69
2018-01-15T03:19:11.701Z,101681.86
2018-01-15T03:21:37.906Z,101675.72
2018-01-15T03:24:04.126Z,101664.36
2018-01-15T03:26:30.341Z,101655.22
2018-01-15T03:28:56.549Z,101650.45
2018-01-15T03:31:22.782Z,101642.16
2018-01-15T03:33:48.968Z,101645.64
2018-01-15T03:36:15.179Z,101636.05
2018-01-15T03:38:41.805Z,101626.45
2018-01-15T03:41:08.022Z,101621.64
2018-01-15T03:43:34.529Z,101619.04
2018-01-15T03:46:01.116Z,101612.47
2018-01-15T03:48:27.355Z,101609.43
2018-01-15T03:50:53.583Z,101621.20
2018-01-15T03:53:19.814Z,101615.55
2018-01-15T03:55:45.998Z,101602.45
2018-01-15T03:58:12.588Z,101601.14
2018-01-15T04:00:38.826Z,101598.09
2018-01-15T04:03:05.046Z,101590.24
2018-01-15T04:05:31.339Z,101581.53
2018-01-15T04:07:57.946Z,101572.37
2018-01-15T04:10:24.138Z,101582.37
2018-01-15T04:12:50.934Z,101575.84
2018-01-15T04:15:18.058Z,101569.31
2018-01-15T04:17:44.327Z,101560.13
2018-01-15T04:20:10.592Z,101558.84
2018-01-15T04:22:36.813Z,101560.13
2018-01-15T04:25:03.004Z,101546.17
2018-01-15T04:27:29.239Z,101547.48
2018-01-15T04:29:55.408Z,101547.48
2018-01-15T04:32:21.610Z,101534.39
2018-01-15T04:34:48.267Z,101530.03
2018-01-15T04:37:14.565Z,101527.45
2018-01-15T04:39:40.750Z,101526.56
2018-01-15T04:42:07.034Z,101524.36
2018-01-15T04:44:33.283Z,101524.79
2018-01-15T04:46:59.539Z,101519.58
2018-01-15T04:49:25.807Z,101508.69
2018-01-15T04:51:51.964Z,101506.03
2018-01-15T04:54:18.178Z,101497.31
2018-01-15T04:56:44.862Z,101480.33
2018-01-15T04:59:11.055Z,101480.36
2018-01-15T05:01:37.289Z,101465.50
2018-01-15T05:04:03.546Z,101464.60
2018-01-15T05:06:29.756Z,101459.38
2018-01-15T05:08:55.949Z,101455.44
2018-01-15T05:11:22.539Z,101447.13
2018-01-15T05:13:48.763Z,101441.91
2018-01-15T05:16:14.979Z,101443.19
2018-01-15T05:18:41.543Z,101430.98
2018-01-15T05:21:08.062Z,101428.36
2018-01-15T05:23:34.249Z,101422.64
2018-01-15T05:26:00.574Z,101406.53
2018-01-15T05:28:26.786Z,101405.23
2018-01-15T05:30:53.006Z,101401.32
2018-01-15T05:33:19.614Z,101396.94
2018-01-15T05:35:45.829Z,101393.88
2018-01-15T05:38:12.265Z,101393.90
2018-01-15T05:40:38.560Z,101393.88
2018-01-15T05:43:04.785Z,101385.56
2018-01-15T05:45:30.975Z,101384.26
2018-01-15T05:47:57.464Z,101375.98
2018-01-15T05:50:23.666Z,101374.69
2018-01-15T05:52:49.857Z,101379.06
2018-01-15T05:55:16.109Z,101366.39
2018-01-15T05:57:42.379Z,101368.13
2018-01-15T06:00:08.607Z,101362.91
2018-01-15T06:02:34.927Z,101359.00
2018-01-15T06:05:01.100Z,101360.77
2018-01-15T06:07:27.625Z,101362.91
2018-01-15T06:09:53.889Z,101349.44
2018-01-15T06:12:20.113Z,101335.45
2018-01-15T06:14:46.624Z,101334.59
2018-01-15T06:17:12.873Z,101331.97
2018-01-15T06:19:39.083Z,101327.19
2018-01-15T06:22:05.343Z,101325.85
2018-01-15T06:24:31.622Z,101324.56
2018-01-15T06:26:57.844Z,101318.02
2018-01-15T06:29:24.058Z,101322.38
2018-01-15T06:31:50.633Z,101306.66
2018-01-15T06:34:16.854Z,101300.98
2018-01-15T06:36:43.093Z,101292.23
2018-01-15T06:39:09.450Z,101283.06
2018-01-15T06:41:35.695Z,101275.66
2018-01-15T06:44:01.979Z,101267.81
2018-01-15T06:46:28.232Z,101262.59
2018-01-15T06:48:54.419Z,101256.49
2018-01-15T06:51:20.676Z,101250.36
2018-01-15T06:53:46.864Z,101246.87
2018-01-15T06:56:13.092Z,101242.52
2018-01-15T06:58:39.946Z,101243.42
2018-01-15T07:01:06.140Z,101239.49
2018-01-15T07:03:32.316Z,101236.88
2018-01-15T07:05:58.587Z,101237.30
2018-01-15T07:08:24.894Z,101239.89
2018-01-15T07:10:51.074Z,101235.94
2018-01-15T07:13:17.298Z,101233.75
2018-01-15T07:15:43.506Z,101234.63
2018-01-15T07:18:09.701Z,101239.02
2018-01-15T07:20:35.927Z,101228.14
2018-01-15T07:23:02.479Z,101229.87
2018-01-15T07:25:28.718Z,101209.98
2018-01-15T07:27:54.984Z,101226.02
2018-01-15T07:30:21.280Z,101220.78
2018-01-15T07:32:47.480Z,101220.31
2018-01-15T07:35:13.789Z,101220.35
2018-01-15T07:37:40.322Z,101215.98
2018-01-15T07:40:06.571Z,101208.11
2018-01-15T07:42:32.837Z,101202.47
2018-01-15T07:44:59.054Z,101198.09
2018-01-15T07:47:25.323Z,101194.58
2018-01-15T07:49:51.554Z,101179.30
2018-01-15T07:54:50.876Z,101167.93
2018-01-15T07:57:17.120Z,101161.37
2018-01-15T07:59:43.391Z,101160.93
2018-01-15T08:02:16.503Z,101159.61
2018-01-15T08:04:42.793Z,101156.07
2018-01-15T08:07:09.044Z,101146.91
2018-01-15T08:09:35.278Z,101145.59
2018-01-15T08:12:01.516Z,101145.14
2018-01-15T08:14:27.773Z,101135.14
2018-01-15T08:16:54.382Z,101129.05
2018-01-15T08:19:20.586Z,101129.91
2018-01-15T08:21:46.839Z,101122.45
2018-01-15T08:24:13.104Z,101116.83
2018-01-15T08:26:39.359Z,101118.55
2018-01-15T08:29:05.606Z,101109.42
2018-01-15T08:31:31.901Z,101096.72
2018-01-15T08:33:58.069Z,101099.78
2018-01-15T08:36:24.231Z,101098.42
2018-01-15T08:38:50.439Z,101089.66
2018-01-15T08:41:16.650Z,101088.87
2018-01-15T08:43:43.161Z,101081.44
2018-01-15T08:46:09.387Z,101068.80
2018-01-15T08:48:35.605Z,101061.82
2018-01-15T08:51:01.924Z,101055.27
2018-01-15T08:53:28.178Z,101053.45
2018-01-15T08:55:54.427Z,101049.94
2018-01-15T08:58:20.720Z,101044.30
2018-01-15T09:00:46.920Z,101042.96
2018-01-15T09:03:13.136Z,101035.54
2018-01-15T09:05:39.724Z,101031.23
2018-01-15T09:08:05.920Z,101022.00
2018-01-15T09:10:32.188Z,101017.62
2018-01-15T09:12:58.484Z,101015.87
2018-01-15T09:15:24.705Z,101014.96
2018-01-15T09:17:51.003Z,101008.88
2018-01-15T09:20:17.227Z,101001.51
2018-01-15T09:22:43.428Z,100994.48
2018-01-15T09:25:10.033Z,100993.16
2018-01-15T09:27:36.253Z,100988.38
2018-01-15T09:30:02.520Z,100988.80
2018-01-15T09:32:29.195Z,100982.69
2018-01-15T09:34:55.387Z,100986.66
2018-01-15T09:37:21.711Z,100978.41
2018-01-15T09:39:47.986Z,100972.73
2018-01-15T09:42:14.546Z,100966.56
2018-01-15T09:44:40.776Z,100958.25
2018-01-15T09:47:07.057Z,100956.53
2018-01-15T09:49:33.295Z,100953.89
2018-01-15T09:51:59.570Z,100941.60
2018-01-15T09:54:25.813Z,100942.06
2018-01-15T09:56:52.318Z,100939.88
2018-01-15T09:59:18.969Z,100926.84
2018-01-15T10:01:45.149Z,100914.21
2018-01-15T10:04:11.411Z,100913.31
2018-01-15T10:06:37.654Z,100910.21
2018-01-15T10:09:04.036Z,100911.47
2018-01-15T10:11:30.266Z,100908.81
2018-01-15T10:13:56.548Z,100905.27
2018-01-15T10:16:22.802Z,100891.27
2018-01-15T10:18:49.053Z,100887.80
2018-01-15T10:21:15.697Z,100863.30
2018-01-15T10:23:41.965Z,100856.76
2018-01-15T10:26:08.288Z,100854.11
2018-01-15T10:28:34.533Z,100851.39
2018-01-15T10:31:00.798Z,100840.45
2018-01-15T10:33:27.230Z,100835.16
2018-01-15T10:35:53.816Z,100823.73
2018-01-15T10:38:20.351Z,100816.64
2018-01-15T10:40:46.731Z,100815.66
2018-01-15T10:43:13.307Z,100809.14
2018-01-15T10:45:39.556Z,100790.91
2018-01-15T10:48:05.770Z,100783.11
2018-01-15T10:50:32.060Z,100780.49
2018-01-15T10:52:58.264Z,100775.72
2018-01-15T10:55:24.501Z,100768.36
2018-01-15T10:57:50.688Z,100766.98
2018-01-15T11:00:16.952Z,100752.56
2018-01-15T11:02:43.211Z,100739.87
2018-01-15T11:05:09.532Z,100738.09
2018-01-15T11:07:35.735Z,100730.27
2018-01-15T11:10:02.019Z,100723.75
2018-01-15T11:12:28.245Z,100716.80
2018-01-15T11:14:54.491Z,100716.83
2018-01-15T11:17:20.771Z,100697.62
2018-01-15T11:19:46.990Z,100698.08
2018-01-15T11:22:13.214Z,100688.89
2018-01-15T11:24:39.782Z,100678.41
2018-01-15T11:27:06.027Z,100679.72
2018-01-15T11:29:32.234Z,100667.50
2018-01-15T11:31:58.798Z,100658.30
2018-01-15T11:34:24.997Z,100659.05
2018-01-15T11:36:51.234Z,100647.20
2018-01-15T11:39:17.993Z,100655.09
2018-01-15T11:41:44.545Z,100639.34
2018-01-15T11:44:10.771Z,100638.95
2018-01-15T11:46:37.289Z,100635.42
2018-01-15T11:49:03.489Z,100622.45
2018-01-15T11:51:29.702Z,100620.30
2018-01-15T11:53:55.986Z,100609.79
2018-01-15T11:56:22.174Z,100596.26
2018-01-15T11:58:48.388Z,100583.63
2018-01-15T12:01:14.918Z,100585.78
2018-01-15T12:03:41.093Z,100572.31
2018-01-15T12:06:07.627Z,100571.44
2018-01-15T12:08:33.873Z,100564.33
2018-01-15T12:11:00.301Z,100557.75
2018-01-15T12:13:26.486Z,100555.13
2018-01-15T12:15:53.061Z,100548.68
2018-01-15T12:18:19.290Z,100550.90
2018-01-15T12:20:45.490Z,100539.08
2018-01-15T12:23:12.158Z,100538.23
2018-01-15T12:25:38.359Z,100521.72
2018-01-15T12:28:04.578Z,100513.86
2018-01-15T12:30:30.806Z,100514.30
2018-01-15T12:32:56.981Z,100503.83
2018-01-15T12:35:23.196Z,100493.38
2018-01-15T12:37:49.834Z,100486.37
2018-01-15T12:40:16.025Z,100484.19
2018-01-15T12:42:42.266Z,100475.86
2018-01-15T12:45:08.550Z,100470.55
2018-01-15T12:47:34.770Z,100460.51
2018-01-15T12:50:00.993Z,100449.20
2018-01-15T12:52:27.237Z,100440.06
2018-01-15T12:54:54.047Z,100436.98
2018-01-15T12:57:20.261Z,100423.88
2018-01-15T12:59:47.014Z,100414.20
2018-01-15T13:02:13.265Z,100402.42
2018-01-15T13:04:39.490Z,100392.42
2018-01-15T13:07:18.081Z,100387.22
2018-01-15T13:09:44.332Z,100388.05
2018-01-15T13:12:10.546Z,100371.11
2018-01-15T13:14:37.096Z,100361.07
2018-01-15T13:17:03.613Z,100343.22
2018-01-15T13:19:29.825Z,100333.17
2018-01-15T13:21:56.122Z,100325.72
2018-01-15T13:24:22.359Z,100318.73
2018-01-15T13:26:48.537Z,100313.97
2018-01-15T13:29:14.831Z,100303.45
2018-01-15T13:31:41.053Z,100298.19
2018-01-15T13:34:07.225Z,100287.63
2018-01-15T13:36:33.863Z,100275.33
2018-01-15T13:39:00.106Z,100262.68
2018-01-15T13:41:26.366Z,100255.66
2018-01-15T13:43:52.938Z,100250.89
2018-01-15T13:46:19.281Z,100230.46
2018-01-15T13:48:45.474Z,100233.16
2018-01-15T13:51:11.650Z,100228.86
2018-01-15T13:53:37.956Z,100217.95
2018-01-15T13:56:04.180Z,100222.36
2018-01-15T13:58:30.430Z,100205.38
2018-01-15T14:00:56.721Z,100197.88
2018-01-15T14:03:23.280Z,100190.06
2018-01-15T14:05:49.498Z,100183.96
2018-01-15T14:08:16.091Z,100183.48
2018-01-15T14:10:42.346Z,100180.94
2018-01-15T14:13:08.537Z,100170.03
2018-01-15T14:15:35.110Z,100169.16
2018-01-15T14:18:01.373Z,100152.22
2018-01-15T14:20:27.597Z,100147.38
2018-01-15T14:22:54.130Z,100130.41
2018-01-15T14:25:20.339Z,100126.95
2018-01-15T14:27:46.643Z,100122.55
2018-01-15T14:30:13.186Z,100117.35
2018-01-15T14:32:39.432Z,100112.20
2018-01-15T14:35:05.635Z,100098.31
2018-01-15T14:37:31.886Z,100093.44
2018-01-15T14:39:58.283Z,100080.34
2018-01-15T14:42:24.428Z,100070.36
2018-01-15T14:44:50.730Z,100070.75
2018-01-15T14:47:17.231Z,100059.80
2018-01-15T14:49:43.767Z,100050.67
2018-01-15T14:52:10.040Z,100039.72
2018-01-15T14:54:36.221Z,100032.27
2018-01-15T14:57:02.418Z,100028.81
2018-01-15T14:59:28.738Z,100026.16
2018-01-15T15:01:55.111Z,100019.13
2018-01-15T15:04:21.330Z,100007.30
2018-01-15T15:06:47.879Z,100000.80
2018-01-15T15:09:14.157Z,99992.13
2018-01-15T15:11:40.390Z,99986.88
2018-01-15T15:14:06.655Z,99985.57
2018-01-15T15:16:33.258Z,99977.72
2018-01-15T15:18:59.724Z,99972.05
2018-01-15T15:21:26.574Z,99969.91
2018-01-15T15:23:52.757Z,99966.50
2018-01-15T15:26:19.236Z,99960.00
2018-01-15T15:28:45.765Z,99961.31
2018-01-15T15:31:12.065Z,99954.69
2018-01-15T15:33:38.528Z,99945.56
2018-01-15T15:36:04.779Z,99944.69
2018-01-15T15:38:31.080Z,99940.77
2018-01-15T15:40:57.322Z,99932.86
2018-01-15T15:43:23.861Z,99934.66
2018-01-15T15:45:50.389Z,99924.72
2018-01-15T15:48:16.565Z,99929.95
2018-01-15T15:50:42.787Z,99922.58
2018-01-15T15:53:09.077Z,99907.34
2018-01-15T15:55:35.284Z,99912.09
2018-01-15T15:58:01.492Z,99911.19
2018-01-15T16:00:28.038Z,99899.49
2018-01-15T16:02:54.249Z,99881.13
2018-01-15T16:05:20.473Z,99883.30
2018-01-15T16:07:46.817Z,99875.94
2018-01-15T16:10:13.091Z,99871.09
2018-01-15T16:12:39.292Z,99861.50
2018-01-15T16:15:05.580Z,99863.23
2018-01-15T16:17:31.794Z,99857.17
2018-01-15T16:19:58.039Z,99843.61
2018-01-15T16:22:31.805Z,99833.09
2018-01-15T16:24:58.050Z,99826.55
2018-01-15T16:27:24.265Z,99836.14
2018-01-15T16:29:50.550Z,99827.02
2018-01-15T16:32:16.782Z,99811.80
2018-01-15T16:34:42.990Z,99799.11
2018-01-15T16:37:09.280Z,99775.07
2018-01-15T16:39:35.500Z,99776.47
2018-01-15T16:42:01.707Z,99777.29
2018-01-15T16:44:28.505Z,99763.78
2018-01-15T16:46:54.725Z,99755.44
2018-01-15T16:49:20.951Z,99748.50
2018-01-15T16:51:47.216Z,99739.77
2018-01-15T16:54:13.482Z,99731.09
2018-01-15T16:56:40.025Z,99716.66
2018-01-15T16:59:06.296Z,99711.86
2018-01-15T17:01:32.526Z,99697.89
2018-01-15T17:03:58.729Z,99694.50
2018-01-15T17:06:25.006Z,99688.45
2018-01-15T17:08:51.207Z,99677.93
2018-01-15T17:11:17.490Z,99678.31
2018-01-15T17:13:44.016Z,99668.72
2018-01-15T17:16:10.547Z,99660.38
2018-01-15T17:18:36.811Z,99650.41
2018-01-15T17:21:03.151Z,99645.59
2018-01-15T17:23:29.383Z,99647.30
2018-01-15T17:25:55.611Z,99638.52
2018-01-15T17:28:21.885Z,99624.12
2018-01-15T17:30:48.095Z,99604.93
2018-01-15T17:33:14.634Z,99606.72
2018-01-15T17:35:40.884Z,99606.72
2018-01-15T17:38:07.077Z,99585.02
2018-01-15T17:40:33.600Z,99575.47
2018-01-15T17:42:59.823Z,99568.48
2018-01-15T17:45:26.008Z,99561.98
2018-01-15T17:47:52.245Z,99558.95
2018-01-15T17:50:18.478Z,99544.66
2018-01-15T17:52:44.666Z,99533.27
2018-01-15T17:55:10.972Z,99535.44
2018-01-15T17:57:37.211Z,99537.56
2018-01-15T18:00:03.571Z,99521.05
2018-01-15T18:02:29.935Z,99517.22
2018-01-15T18:04:56.149Z,99508.06
2018-01-15T18:07:22.351Z,99501.09
2018-01-15T18:09:48.691Z,99484.03
2018-01-15T18:12:14.950Z,99487.02
2018-01-15T18:14:41.191Z,99477.86
2018-01-15T18:17:07.437Z,99466.45
2018-01-15T18:19:33.633Z,99458.56
2018-01-15T18:22:00.161Z,99454.20
2018-01-15T18:24:26.383Z,99444.21
2018-01-15T18:26:52.710Z,99442.42
2018-01-15T18:29:18.938Z,99434.56
2018-01-15T18:31:45.170Z,99432.83
2018-01-15T18:34:11.712Z,99422.78
2018-01-15T18:36:38.241Z,99408.02
2018-01-15T18:39:04.510Z,99394.48
2018-01-15T18:41:30.800Z,99390.14
2018-01-15T18:43:57.021Z,99383.70
2018-01-15T18:46:23.218Z,99384.97
2018-01-15T18:48:49.703Z,99374.92
2018-01-15T18:51:15.891Z,99378.03
2018-01-15T18:53:42.095Z,99366.25
2018-01-15T18:56:08.688Z,99362.72
2018-01-15T18:58:35.218Z,99354.48
2018-01-15T19:01:01.551Z,99344.50
2018-01-15T19:03:27.762Z,99337.26
2018-01-15T19:05:54.311Z,99330.23
2018-01-15T19:08:20.563Z,99325.55
2018-01-15T19:10:46.835Z,99315.51
2018-01-15T19:13:13.138Z,99308.86
2018-01-15T19:15:39.370Z,99302.70
2018-01-15T19:18:05.594Z,99296.59
2018-01-15T19:20:31.902Z,99280.88
2018-01-15T19:22:58.121Z,99278.27
2018-01-15T19:25:24.343Z,99269.98
2018-01-15T19:27:50.868Z,99268.63
2018-01-15T19:30:17.168Z,99253.41
2018-01-15T19:32:43.478Z,99244.69
2018-01-15T19:38:21.623Z,99231.37
2018-01-15T19:40:47.991Z,99213.26
2018-01-15T19:43:17.182Z,99201.03
2018-01-15T19:45:49.805Z,99193.85
2018-01-15T19:48:22.016Z,99187.48
2018-01-15T19:50:54.628Z,99180.84
2018-01-15T19:53:27.065Z,99169.48
2018-01-15T19:55:59.282Z,99158.59
2018-01-15T19:58:31.398Z,99155.92
2018-01-15T20:01:04.106Z,99142.03
2018-01-15T20:03:36.487Z,99131.94
2018-01-15T20:06:08.913Z,99134.92
2018-01-15T20:08:41.427Z,99135.67
2018-01-15T20:11:08.703Z,99115.09
2018-01-15T20:13:35.330Z,99106.83
2018-01-15T20:16:01.638Z,99095.78
2018-01-15T20:18:27.914Z,99088.33
2018-01-15T20:20:54.276Z,99078.33
2018-01-15T20:23:20.603Z,99065.23
2018-01-15T20:25:46.859Z,99063.63
2018-01-15T20:28:13.431Z,99058.16
2018-01-15T20:30:39.734Z,99046.06
2018-01-15T20:33:06.015Z,99044.83
2018-01-15T20:35:32.316Z,99034.41
2018-01-15T20:37:58.671Z,99033.95
2018-01-15T20:40:24.962Z,99023.89
2018-01-15T20:42:52.869Z,99016.69
2018-01-15T20:45:19.158Z,99012.20
2018-01-15T20:47:45.439Z,99003.91
2018-01-15T20:50:11.686Z,99007.16
2018-01-15T20:52:38.231Z,98987.88
2018-01-15T20:55:04.474Z,98985.77
2018-01-15T20:57:30.700Z,98979.58
2018-01-15T20:59:56.998Z,98970.13
2018-01-15T21:02:23.292Z,98962.47
2018-01-15T21:04:49.621Z,98962.61
2018-01-15T21:07:15.921Z,98957.45
2018-01-15T21:09:42.105Z,98950.00
2018-01-15T21:12:08.495Z,98942.17
2018-01-15T21:14:35.294Z,98930.57
2018-01-15T21:17:01.513Z,98921.00
2018-01-15T21:19:27.761Z,98914.01
2018-01-15T21:21:54.275Z,98902.73
2018-01-15T21:24:20.469Z,98912.25
2018-01-15T21:26:46.912Z,98903.91
2018-01-15T21:29:13.159Z,98894.30
2018-01-15T21:31:39.399Z,98886.90
2018-01-15T21:34:05.656Z,98870.38
2018-01-15T21:36:31.922Z,98868.95
2018-01-15T21:38:58.159Z,98857.41
2018-01-15T21:41:24.753Z,98843.06
2018-01-15T21:43:51.021Z,98839.66
2018-01-15T21:46:17.265Z,98827.20
2018-01-15T21:48:43.528Z,98817.67
2018-01-15T21:51:09.795Z,98822.27
2018-01-15T21:53:36.025Z,98805.27
2018-01-15T21:56:02.242Z,98787.80
2018-01-15T21:58:28.559Z,98783.52
2018-01-15T22:00:55.012Z,98785.42
2018-01-15T22:03:21.227Z,98781.50
2018-01-15T22:05:47.725Z,98769.29
2018-01-15T22:08:13.941Z,98770.15
2018-01-15T22:10:40.211Z,98754.66
2018-01-15T22:13:06.493Z,98755.17
2018-01-15T22:15:32.721Z,98749.00
2018-01-15T22:17:58.978Z,98749.08
2018-01-15T22:20:25.237Z,98741.65
2018-01-15T22:22:51.475Z,98732.30
2018-01-15T22:25:17.739Z,98732.73
2018-01-15T22:27:44.227Z,98726.27
2018-01-15T22:30:10.512Z,98723.33
2018-01-15T22:32:36.745Z,98715.20
2018-01-15T22:35:03.188Z,98719.50
2018-01-15T22:37:29.474Z,98712.80
2018-01-15T22:39:55.734Z,98712.56
2018-01-15T22:42:21.933Z,98696.63
2018-01-15T22:44:48.252Z,98697.66
2018-01-15T22:47:14.475Z,98685.08
2018-01-15T22:49:40.694Z,98678.47
2018-01-15T22:52:06.948Z,98671.34
2018-01-15T22:54:33.279Z,98671.55
2018-01-15T22:56:59.622Z,98665.73
2018-01-15T22:59:25.944Z,98660.06
2018-01-15T23:01:52.383Z,98664.29
2018-01-15T23:04:18.901Z,98657.88
2018-01-15T23:06:45.343Z,98652.66
2018-01-15T23:09:12.032Z,98647.06
2018-01-15T23:11:38.577Z,98637.55
2018-01-15T23:14:04.993Z,98643.05
2018-01-15T23:16:31.306Z,98634.69
2018-01-15T23:18:58.425Z,98634.69
2018-01-15T23:21:24.661Z,98629.37
2018-01-15T23:23:51.122Z,98625.90
2018-01-15T23:26:17.418Z,98621.03
2018-01-15T23:28:43.768Z,98620.13
2018-01-15T23:31:11.535Z,98629.02
2018-01-15T23:33:37.902Z,98621.09
2018-01-15T23:36:04.296Z,98617.11
2018-01-15T23:38:30.679Z,98620.16
2018-01-15T23:40:57.027Z,98616.86
2018-01-15T23:43:23.304Z,98625.46
2018-01-15T23:45:49.566Z,98619.05
2018-01-15T23:48:15.772Z,98617.88
2018-01-15T23:50:42.043Z,98618.25
2018-01-15T23:53:08.541Z,98614.09
2018-01-15T23:55:34.738Z,98609.36
2018-01-15T23:58:00.986Z,98604.63
